Time;durP1;ratioP1;P1;durP2;ratioP2;P2;SDS_P1;SDS_P2;PMS_P1;PMS_P2;Temp;Humidity;BMP_temperature;BMP_pressure;BME280_temperature;BME280_humidity;BME280_pressure;Samples;Min_cycle;Max_cycle;Signal;HPM_P1;HPM_P2
2021/12/27 00:00:26;;;;;;;15.10;14.60;;;19.70;49.10;;;;;;5012791;28;20442;-54
2021/12/27 00:02:57;;;;;;;15.27;14.67;;;19.60;49.20;;;;;;5012235;28;20478;-57
2021/12/27 00:05:24;;;;;;;14.80;14.30;;;19.50;49.40;;;;;;5012821;28;20555;-57
2021/12/27 00:07:53;;;;;;;15.07;14.57;;;19.40;49.60;;;;;;5013226;28;20442;-54
2021/12/27 00:10:22;;;;;;;15.07;14.57;;;19.40;49.80;;;;;;5011902;28;20531;-55
2021/12/27 00:12:51;;;;;;;15.60;15.10;;;19.30;50.00;;;;;;5012554;28;20450;-56
2021/12/27 00:15:19;;;;;;;15.57;15.00;;;19.30;50.30;;;;;;5011046;28;20477;-58
2021/12/27 00:17:48;;;;;;;15.10;14.50;;;19.30;50.30;;;;;;5012586;28;20445;-55
2021/12/27 00:20:17;;;;;;;15.83;15.23;;;19.30;50.30;;;;;;5012493;28;20500;-54
2021/12/27 00:22:46;;;;;;;15.87;15.30;;;19.30;50.40;;;;;;5011266;28;20480;-56
2021/12/27 00:25:14;;;;;;;15.57;14.97;;;19.20;50.50;;;;;;5012378;28;20458;-59
2021/12/27 00:27:41;;;;;;;15.60;15.10;;;19.20;50.60;;;;;;5012423;28;20450;-57
2021/12/27 00:30:12;;;;;;;15.80;15.23;;;19.20;50.60;;;;;;5012371;28;20454;-54
2021/12/27 00:32:43;;;;;;;15.20;14.70;;;19.20;50.50;;;;;;5012212;28;20446;-56
2021/12/27 00:35:10;;;;;;;15.80;15.30;;;19.20;50.50;;;;;;5011673;28;20563;-57
2021/12/27 00:37:38;;;;;;;16.67;16.07;;;19.20;50.50;;;;;;5012352;28;20449;-56
2021/12/27 00:40:07;;;;;;;16.00;15.50;;;19.20;50.60;;;;;;5012131;28;20449;-58
2021/12/27 00:42:34;;;;;;;16.17;15.57;;;19.10;50.60;;;;;;5011658;28;20478;-53
2021/12/27 00:45:01;;;;;;;15.90;15.33;;;19.10;50.70;;;;;;5011489;28;20442;-56
2021/12/27 00:47:29;;;;;;;16.40;15.80;;;19.10;50.80;;;;;;5012250;28;20809;-56
2021/12/27 00:49:56;;;;;;;15.73;15.23;;;19.00;50.80;;;;;;5010896;28;20973;-53
2021/12/27 00:52:24;;;;;;;16.23;15.63;;;19.00;50.90;;;;;;5011792;28;20449;-56
2021/12/27 00:54:51;;;;;;;16.33;15.73;;;19.00;51.00;;;;;;5011906;28;20438;-52
2021/12/27 00:57:18;;;;;;;15.93;15.43;;;18.90;51.00;;;;;;5012036;28;21007;-56
2021/12/27 00:59:45;;;;;;;16.07;15.50;;;18.90;51.20;;;;;;5012190;28;20508;-56
2021/12/27 01:02:12;;;;;;;16.00;15.40;;;18.90;51.30;;;;;;5011783;28;20482;-58
2021/12/27 01:04:40;;;;;;;16.47;15.87;;;18.90;51.30;;;;;;5011999;28;20497;-57
2021/12/27 01:07:07;;;;;;;15.87;15.37;;;18.80;51.30;;;;;;5011641;28;20493;-57
2021/12/27 01:09:45;;;;;;;16.00;15.40;;;18.80;51.40;;;;;;5011618;28;20447;-57
2021/12/27 01:12:28;;;;;;;15.97;15.37;;;18.80;51.40;;;;;;5010987;28;20446;-58
2021/12/27 01:15:11;;;;;;;16.33;15.70;;;18.70;51.40;;;;;;5011597;28;20446;-52
2021/12/27 01:17:39;;;;;;;16.03;15.33;;;18.70;51.60;;;;;;5011071;28;20454;-53
2021/12/27 01:20:11;;;;;;;16.77;16.07;;;18.70;51.70;;;;;;5010063;28;20452;-53
2021/12/27 01:22:38;;;;;;;16.00;15.30;;;18.70;51.80;;;;;;5011201;28;20474;-57
2021/12/27 01:25:07;;;;;;;16.27;15.67;;;18.60;51.80;;;;;;5011137;28;20437;-53
2021/12/27 01:27:35;;;;;;;16.70;16.10;;;18.60;51.90;;;;;;5011399;28;20971;-55
2021/12/27 01:30:02;;;;;;;16.40;15.73;;;18.60;52.10;;;;;;5011463;28;20446;-57
2021/12/27 01:32:34;;;;;;;16.20;15.60;;;18.60;52.10;;;;;;5011066;28;20889;-55
2021/12/27 01:35:01;;;;;;;16.20;15.60;;;18.50;52.10;;;;;;5010896;28;20453;-58
2021/12/27 01:37:30;;;;;;;16.27;15.57;;;18.50;52.30;;;;;;5011046;28;20481;-59
2021/12/27 01:39:57;;;;;;;15.40;14.90;;;18.40;52.30;;;;;;5010115;28;20442;-56
2021/12/27 01:42:24;;;;;;;16.07;15.47;;;18.40;52.50;;;;;;5010975;28;20485;-55
2021/12/27 01:44:51;;;;;;;16.17;15.57;;;18.40;52.60;;;;;;5011140;28;20482;-58
2021/12/27 01:47:19;;;;;;;16.30;15.70;;;18.40;52.70;;;;;;5009924;28;20458;-58
2021/12/27 01:49:47;;;;;;;17.00;16.10;;;18.40;52.80;;;;;;5011035;28;20839;-53
2021/12/27 01:52:14;;;;;;;15.90;15.30;;;18.40;52.80;;;;;;5010898;28;20442;-57
2021/12/27 01:54:42;;;;;;;16.20;15.50;;;18.30;52.90;;;;;;5010033;28;20452;-58
2021/12/27 01:57:09;;;;;;;16.60;15.90;;;18.30;53.00;;;;;;5010287;28;20500;-55
2021/12/27 01:59:36;;;;;;;16.07;15.47;;;18.30;53.10;;;;;;5010822;28;20456;-59
2021/12/27 02:02:04;;;;;;;15.83;15.27;;;18.30;53.10;;;;;;5010409;28;21021;-59
2021/12/27 02:04:31;;;;;;;15.67;15.13;;;18.20;53.20;;;;;;5009126;28;20940;-58
2021/12/27 02:06:58;;;;;;;15.80;15.23;;;18.20;53.20;;;;;;5037068;22;20493;-47
2021/12/27 02:09:36;;;;;;;16.33;15.73;;;18.20;53.30;;;;;;5019128;28;20977;-46
2021/12/27 02:12:05;;;;;;;16.40;15.70;;;18.20;53.40;;;;;;5024572;28;20468;-46
2021/12/27 02:14:32;;;;;;;16.47;15.87;;;18.20;53.50;;;;;;5028392;28;20450;-46
2021/12/27 02:17:00;;;;;;;16.53;15.90;;;18.20;53.60;;;;;;5036922;28;20555;-46
2021/12/27 02:19:27;;;;;;;16.10;15.50;;;18.10;53.60;;;;;;5047876;28;20455;-47
2021/12/27 02:21:57;;;;;;;16.57;15.87;;;18.10;53.70;;;;;;5031586;28;20477;-46
2021/12/27 02:24:24;;;;;;;16.10;15.50;;;18.10;53.80;;;;;;5031634;28;20499;-46
2021/12/27 02:26:51;;;;;;;16.87;16.20;;;18.10;53.90;;;;;;5031628;28;20463;-46
2021/12/27 02:29:18;;;;;;;15.93;15.40;;;18.10;53.90;;;;;;5032972;28;20941;-46
2021/12/27 02:31:47;;;;;;;17.40;16.70;;;18.00;53.90;;;;;;5044455;28;20451;-46
2021/12/27 02:34:14;;;;;;;16.00;15.40;;;18.00;53.90;;;;;;5047263;28;20815;-46
2021/12/27 02:36:42;;;;;;;16.33;15.73;;;18.00;54.00;;;;;;5035593;28;21019;-46
2021/12/27 02:39:10;;;;;;;16.70;16.10;;;18.00;54.00;;;;;;5041004;28;20934;-46
2021/12/27 02:41:37;;;;;;;15.93;15.40;;;18.00;54.10;;;;;;5043570;28;20502;-46
2021/12/27 02:44:05;;;;;;;16.97;16.27;;;18.00;54.10;;;;;;5044002;28;20445;-46
2021/12/27 02:46:32;;;;;;;16.23;15.63;;;17.90;54.20;;;;;;5031380;28;20829;-46
2021/12/27 02:48:59;;;;;;;16.23;15.63;;;17.90;54.30;;;;;;5037528;28;20499;-46
2021/12/27 02:51:27;;;;;;;15.83;15.23;;;17.90;54.30;;;;;;5041605;28;20449;-48
2021/12/27 02:53:54;;;;;;;16.07;15.47;;;17.90;54.40;;;;;;5031274;28;20437;-48
2021/12/27 02:56:22;;;;;;;16.37;15.67;;;17.90;55.00;;;;;;5031021;28;20472;-50
2021/12/27 02:58:50;;;;;;;15.50;15.00;;;17.90;54.60;;;;;;5040114;28;20448;-47
2021/12/27 03:01:19;;;;;;;15.70;15.20;;;17.80;54.50;;;;;;5031310;28;20447;-46
2021/12/27 03:03:47;;;;;;;15.60;15.00;;;17.80;54.60;;;;;;5031125;28;20997;-47
2021/12/27 03:06:15;;;;;;;15.70;15.10;;;17.80;54.70;;;;;;5030736;28;20473;-46
2021/12/27 03:08:43;;;;;;;15.63;15.10;;;17.80;54.90;;;;;;5043765;28;20448;-47
2021/12/27 03:11:11;;;;;;;16.27;15.67;;;17.80;54.90;;;;;;5033284;28;20436;-48
2021/12/27 03:13:41;;;;;;;16.40;15.80;;;17.80;55.00;;;;;;5047787;28;20443;-46
2021/12/27 03:16:10;;;;;;;15.80;15.20;;;17.70;55.00;;;;;;5046759;28;20835;-49
2021/12/27 03:18:39;;;;;;;15.97;15.37;;;17.80;55.10;;;;;;5047830;28;20452;-47
2021/12/27 03:21:07;;;;;;;16.20;15.60;;;17.80;55.10;;;;;;5031043;28;20441;-50
2021/12/27 03:23:36;;;;;;;15.67;15.17;;;17.70;55.00;;;;;;5030870;28;20948;-47
2021/12/27 03:26:03;;;;;;;15.60;15.00;;;17.70;55.10;;;;;;5034008;28;20965;-46
2021/12/27 03:28:30;;;;;;;15.90;15.20;;;17.70;55.20;;;;;;5031022;28;20515;-46
2021/12/27 03:30:59;;;;;;;16.40;15.70;;;17.70;55.20;;;;;;5031249;28;20437;-46
2021/12/27 03:33:26;;;;;;;16.17;15.63;;;17.70;55.30;;;;;;5033988;28;20437;-49
2021/12/27 03:36:01;;;;;;;15.53;14.93;;;17.70;55.40;;;;;;5046343;28;20456;-49
2021/12/27 03:38:29;;;;;;;14.90;14.40;;;17.70;55.50;;;;;;5046410;28;20468;-47
2021/12/27 03:40:56;;;;;;;15.80;15.20;;;17.60;55.50;;;;;;5033268;28;20537;-48
2021/12/27 03:43:23;;;;;;;15.83;15.23;;;17.60;55.60;;;;;;5030507;28;21005;-47
2021/12/27 03:45:50;;;;;;;15.40;14.90;;;17.60;55.60;;;;;;5030745;28;20831;-46
2021/12/27 03:48:19;;;;;;;16.10;15.50;;;17.60;55.60;;;;;;5047424;28;20814;-48
2021/12/27 03:50:46;;;;;;;15.30;14.80;;;17.60;55.70;;;;;;5034263;28;20814;-46
2021/12/27 03:53:13;;;;;;;15.60;15.03;;;17.60;55.60;;;;;;5035169;28;20451;-47
2021/12/27 03:55:40;;;;;;;15.93;15.33;;;17.60;55.60;;;;;;5047036;28;20463;-48
2021/12/27 03:58:09;;;;;;;15.80;15.20;;;17.60;55.70;;;;;;5030880;28;20441;-46
2021/12/27 04:00:47;;;;;;;16.00;15.43;;;17.60;55.90;;;;;;5031861;28;20826;-48
2021/12/27 04:03:16;;;;;;;15.83;15.30;;;17.60;56.10;;;;;;5035663;28;20636;-48
2021/12/27 04:05:45;;;;;;;15.83;15.27;;;17.50;56.40;;;;;;5046975;28;20476;-48
2021/12/27 04:08:13;;;;;;;16.30;15.70;;;17.50;56.70;;;;;;5041194;28;20452;-47
2021/12/27 04:10:41;;;;;;;16.43;15.80;;;17.40;57.00;;;;;;5030700;28;20453;-47
2021/12/27 04:13:10;;;;;;;16.07;15.47;;;17.40;57.30;;;;;;5031612;28;20438;-48
2021/12/27 04:15:38;;;;;;;15.80;15.20;;;17.40;57.50;;;;;;5030723;28;20468;-47
2021/12/27 04:18:06;;;;;;;15.70;15.20;;;17.30;57.70;;;;;;5033905;28;20442;-46
2021/12/27 04:20:33;;;;;;;15.57;14.97;;;17.40;57.80;;;;;;5047618;28;20436;-49
2021/12/27 04:23:02;;;;;;;15.33;14.70;;;17.30;57.90;;;;;;5050360;28;20486;-46
2021/12/27 04:25:29;;;;;;;15.90;15.30;;;17.30;57.90;;;;;;5033898;28;20507;-46
2021/12/27 04:27:56;;;;;;;16.07;15.47;;;17.30;58.00;;;;;;5036480;28;20445;-47
2021/12/27 04:30:23;;;;;;;16.20;15.60;;;17.30;58.10;;;;;;5046050;28;20507;-48
2021/12/27 04:32:51;;;;;;;15.33;14.83;;;17.30;58.30;;;;;;5034854;28;20446;-46
2021/12/27 04:35:20;;;;;;;15.40;14.90;;;17.30;58.60;;;;;;5049293;28;20436;-47
2021/12/27 04:37:47;;;;;;;16.30;15.70;;;17.20;58.80;;;;;;5037257;28;20453;-48
2021/12/27 04:40:17;;;;;;;15.87;15.27;;;17.20;59.00;;;;;;5033585;28;20441;-47
2021/12/27 04:42:48;;;;;;;15.80;15.20;;;17.20;59.10;;;;;;5033523;28;21000;-46
2021/12/27 04:45:16;;;;;;;15.13;14.53;;;17.20;59.20;;;;;;5034747;28;20445;-50
2021/12/27 04:47:43;;;;;;;16.17;15.57;;;17.20;59.30;;;;;;5044076;28;20475;-47
2021/12/27 04:50:12;;;;;;;16.03;15.43;;;17.10;59.40;;;;;;5035888;28;20437;-48
2021/12/27 04:52:39;;;;;;;15.63;15.03;;;17.10;59.60;;;;;;5033358;28;20851;-50
2021/12/27 04:55:07;;;;;;;15.67;15.07;;;17.10;59.80;;;;;;5037325;28;20434;-50
2021/12/27 04:57:35;;;;;;;16.47;15.87;;;17.10;59.90;;;;;;5033342;28;20464;-48
2021/12/27 05:00:02;;;;;;;15.93;15.43;;;17.10;60.10;;;;;;5035563;28;20542;-46
2021/12/27 05:02:29;;;;;;;15.83;15.33;;;17.00;60.10;;;;;;5032969;28;20445;-47
2021/12/27 05:04:55;;;;;;;16.50;15.90;;;17.10;60.50;;;;;;5049504;28;20821;-47
2021/12/27 05:07:22;;;;;;;16.87;15.97;;;17.10;60.60;;;;;;5049608;28;20870;-47
2021/12/27 05:09:49;;;;;;;16.00;15.40;;;17.10;60.70;;;;;;5048633;28;20448;-48
2021/12/27 05:12:16;;;;;;;16.33;15.73;;;17.10;60.90;;;;;;5042812;28;20853;-48
2021/12/27 05:14:44;;;;;;;17.07;16.47;;;17.10;61.10;;;;;;5042264;28;20445;-50
2021/12/27 05:17:10;;;;;;;16.10;15.60;;;17.10;61.30;;;;;;5049523;28;20471;-48
2021/12/27 05:19:37;;;;;;;16.67;16.07;;;17.10;61.30;;;;;;5049503;28;20455;-46
2021/12/27 05:22:04;;;;;;;15.93;15.33;;;17.10;61.60;;;;;;5048068;28;20456;-46
2021/12/27 05:24:31;;;;;;;16.77;16.17;;;17.20;62.10;;;;;;5032455;28;20479;-47
2021/12/27 05:26:57;;;;;;;15.97;15.40;;;17.20;62.40;;;;;;5032698;28;20469;-52
2021/12/27 05:29:24;;;;;;;16.63;16.03;;;17.20;62.70;;;;;;5048753;28;20455;-48
2021/12/27 05:31:52;;;;;;;16.70;16.10;;;17.10;62.70;;;;;;5049295;28;20444;-48
2021/12/27 05:34:20;;;;;;;16.70;16.10;;;17.10;62.90;;;;;;5046120;28;20934;-47
2021/12/27 05:36:46;;;;;;;16.63;16.03;;;17.10;63.10;;;;;;5042259;28;20471;-48
2021/12/27 05:39:16;;;;;;;16.30;15.70;;;17.10;63.20;;;;;;5049145;28;20440;-49
2021/12/27 05:41:43;;;;;;;16.73;16.10;;;17.10;63.30;;;;;;5039743;28;20547;-48
2021/12/27 05:44:10;;;;;;;18.40;17.13;;;17.00;63.60;;;;;;5048970;28;20472;-49
2021/12/27 05:46:36;;;;;;;18.23;17.23;;;17.20;66.30;;;;;;5048979;28;20479;-48
2021/12/27 05:49:04;;;;;;;18.03;17.03;;;17.30;77.00;;;;;;5047968;28;20441;-47
2021/12/27 05:51:31;;;;;;;17.47;16.43;;;17.40;81.50;;;;;;5032027;28;20445;-46
2021/12/27 05:53:58;;;;;;;18.90;17.70;;;17.70;87.10;;;;;;5032205;28;20441;-46
2021/12/27 05:56:25;;;;;;;19.03;17.63;;;18.00;91.50;;;;;;5046892;28;20472;-49
2021/12/27 05:58:52;;;;;;;19.77;18.03;;;18.40;90.90;;;;;;5048822;28;20452;-50
2021/12/27 06:01:19;;;;;;;17.70;16.60;;;18.60;91.70;;;;;;5032159;28;20437;-47
2021/12/27 06:03:46;;;;;;;19.57;17.77;;;18.80;91.30;;;;;;5032908;28;20468;-47
2021/12/27 06:06:15;;;;;;;19.50;18.17;;;18.90;87.70;;;;;;5035268;28;20507;-48
2021/12/27 06:08:42;;;;;;;19.83;18.30;;;19.10;86.70;;;;;;5031464;28;20448;-50
2021/12/27 06:11:09;;;;;;;19.40;17.63;;;19.20;86.30;;;;;;5031886;28;20456;-50
2021/12/27 06:13:36;;;;;;;20.13;18.20;;;19.20;86.90;;;;;;5031710;28;20524;-47
2021/12/27 06:16:02;;;;;;;20.30;18.83;;;19.30;88.60;;;;;;5031933;28;20472;-47
2021/12/27 06:18:29;;;;;;;18.33;17.03;;;19.30;85.70;;;;;;5044560;28;20441;-52
2021/12/27 06:20:55;;;;;;;19.07;17.70;;;19.40;84.10;;;;;;5031920;28;20865;-47
2021/12/27 06:23:24;;;;;;;18.43;17.33;;;19.40;83.70;;;;;;5031425;28;20822;-49
2021/12/27 06:25:50;;;;;;;18.50;17.60;;;19.50;84.10;;;;;;5031669;28;20465;-52
2021/12/27 06:28:17;;;;;;;19.73;18.63;;;19.50;82.40;;;;;;5038824;28;20445;-51
2021/12/27 06:30:44;;;;;;;19.93;18.03;;;19.50;81.80;;;;;;5036952;28;20449;-49
2021/12/27 06:33:11;;;;;;;18.73;17.53;;;19.60;80.80;;;;;;5036463;28;20437;-49
2021/12/27 06:35:38;;;;;;;18.27;16.80;;;19.60;79.80;;;;;;5033374;28;20857;-47
2021/12/27 06:38:05;;;;;;;17.77;16.67;;;19.60;79.00;;;;;;5048011;28;20455;-49
2021/12/27 06:40:33;;;;;;;18.40;17.20;;;19.70;78.40;;;;;;5031364;28;20942;-49
2021/12/27 06:43:00;;;;;;;17.70;16.90;;;19.70;77.70;;;;;;5034997;28;20451;-52
2021/12/27 06:45:27;;;;;;;18.90;17.60;;;19.70;77.20;;;;;;5046889;28;20522;-48
2021/12/27 06:47:54;;;;;;;17.90;16.70;;;19.70;76.90;;;;;;5047848;28;20789;-52
2021/12/27 06:50:23;;;;;;;17.87;16.87;;;19.70;76.30;;;;;;5032558;28;20441;-49
2021/12/27 06:52:50;;;;;;;17.40;16.60;;;19.70;76.20;;;;;;5035163;28;20488;-49
2021/12/27 06:55:17;;;;;;;18.63;17.50;;;19.70;75.30;;;;;;5031369;28;20445;-50
2021/12/27 06:57:45;;;;;;;17.83;16.83;;;19.80;74.80;;;;;;5031125;28;21009;-49
2021/12/27 07:00:15;;;;;;;17.40;16.50;;;19.70;74.30;;;;;;5034007;28;20441;-49
2021/12/27 07:02:42;;;;;;;18.00;17.00;;;19.70;74.10;;;;;;5034631;28;20441;-48
2021/12/27 07:05:10;;;;;;;18.20;17.37;;;19.80;73.60;;;;;;5031258;28;20818;-47
2021/12/27 07:07:37;;;;;;;17.50;16.50;;;19.80;73.00;;;;;;5031026;28;20487;-49
2021/12/27 07:10:04;;;;;;;17.77;16.77;;;19.80;72.50;;;;;;5032283;28;20443;-47
2021/12/27 07:12:31;;;;;;;16.93;16.10;;;19.80;72.30;;;;;;5030794;28;20445;-48
2021/12/27 07:14:59;;;;;;;18.53;17.40;;;19.80;72.10;;;;;;5031143;28;20442;-48
2021/12/27 07:17:26;;;;;;;17.10;16.30;;;19.80;71.80;;;;;;5048609;28;20525;-49
2021/12/27 07:19:53;;;;;;;15.80;15.10;;;19.80;71.20;;;;;;5050755;28;20452;-48
2021/12/27 07:22:20;;;;;;;16.00;15.30;;;19.80;70.70;;;;;;5030853;28;20940;-49
2021/12/27 07:24:46;;;;;;;15.75;14.95;;;19.80;70.50;;;;;;5031788;28;20475;-47
2021/12/27 07:27:13;;;;;;;15.33;14.53;;;19.90;70.40;;;;;;5046353;28;20214;-54
2021/12/27 07:29:40;;;;;;;15.03;14.40;;;19.90;69.20;;;;;;5040824;28;20448;-48
2021/12/27 07:32:08;;;;;;;14.97;14.27;;;19.90;68.80;;;;;;5030749;28;20438;-49
2021/12/27 07:34:35;;;;;;;15.73;15.00;;;19.90;68.60;;;;;;5030750;28;21213;-59
2021/12/27 07:37:02;;;;;;;16.73;16.03;;;19.90;68.10;;;;;;5019290;28;20611;-49
2021/12/27 07:39:29;;;;;;;16.93;16.23;;;19.20;54.30;;;;;;5027437;28;20924;-50
2021/12/27 07:41:55;;;;;;;16.60;16.00;;;18.20;54.40;;;;;;5019112;28;20969;-49
2021/12/27 07:44:22;;;;;;;16.73;16.03;;;17.60;56.00;;;;;;5019065;28;20481;-49
2021/12/27 07:46:49;;;;;;;17.53;16.63;;;16.80;57.20;;;;;;5027591;28;20475;-54
2021/12/27 07:49:18;;;;;;;17.20;16.50;;;16.30;59.80;;;;;;5025280;28;20540;-51
2021/12/27 07:51:46;;;;;;;16.27;15.57;;;15.90;61.90;;;;;;5027742;28;20503;-52
2021/12/27 07:54:13;;;;;;;16.77;15.97;;;15.50;64.10;;;;;;5039641;28;20440;-49
2021/12/27 07:56:40;;;;;;;17.60;16.70;;;15.20;67.90;;;;;;5035119;28;21039;-52
2021/12/27 07:59:07;;;;;;;16.67;15.87;;;14.90;70.80;;;;;;5030883;28;20444;-49
2021/12/27 08:01:35;;;;;;;16.10;15.40;;;14.70;72.30;;;;;;5030575;28;20444;-49
2021/12/27 08:04:02;;;;;;;15.83;15.13;;;14.40;74.70;;;;;;5032667;28;20467;-51
2021/12/27 08:06:31;;;;;;;14.43;13.90;;;14.20;83.50;;;;;;5054348;22;20496;-57
2021/12/27 08:08:58;;;;;;;14.30;13.80;;;15.20;99.90;;;;;;5020367;28;20449;-50
2021/12/27 08:11:26;;;;;;;14.30;13.80;;;16.00;99.00;;;;;;5021133;28;20464;-57
2021/12/27 08:13:53;;;;;;;13.63;13.13;;;16.50;96.20;;;;;;5021194;28;20456;-53
2021/12/27 08:16:23;;;;;;;14.67;14.17;;;16.80;94.50;;;;;;5021059;28;20484;-54
2021/12/27 08:18:51;;;;;;;14.17;13.60;;;17.10;93.20;;;;;;5021033;28;20531;-57
2021/12/27 08:21:17;;;;;;;14.47;13.97;;;17.30;92.10;;;;;;5019830;28;20449;-57
2021/12/27 08:23:45;;;;;;;14.67;14.07;;;17.50;91.20;;;;;;5020359;28;20481;-53
2021/12/27 08:26:12;;;;;;;14.10;13.67;;;17.60;90.50;;;;;;5020974;28;20477;-53
2021/12/27 08:28:39;;;;;;;14.77;14.17;;;17.70;89.70;;;;;;5022199;28;21108;-55
2021/12/27 08:31:06;;;;;;;13.90;13.50;;;17.80;88.20;;;;;;5021353;28;20449;-55
2021/12/27 08:33:33;;;;;;;13.80;13.30;;;17.90;87.20;;;;;;5020601;28;20449;-52
2021/12/27 08:35:59;;;;;;;14.50;13.87;;;17.80;86.90;;;;;;5020774;28;20538;-52
2021/12/27 08:38:26;;;;;;;13.93;13.43;;;17.90;86.20;;;;;;5020806;28;20452;-53
2021/12/27 08:40:54;;;;;;;15.40;14.80;;;17.90;85.00;;;;;;5020816;28;20946;-54
2021/12/27 08:43:21;;;;;;;14.47;13.97;;;17.90;85.90;;;;;;5019173;28;20459;-54
2021/12/27 08:45:47;;;;;;;14.53;14.00;;;18.00;85.40;;;;;;5020380;28;20477;-55
2021/12/27 08:48:14;;;;;;;14.03;13.63;;;18.00;84.90;;;;;;5020437;28;20444;-55
2021/12/27 08:50:41;;;;;;;14.07;13.67;;;18.00;85.00;;;;;;5020602;28;20488;-56
2021/12/27 08:53:08;;;;;;;13.80;13.30;;;18.00;84.80;;;;;;5018689;28;20457;-52
2021/12/27 08:55:37;;;;;;;14.50;14.00;;;18.10;84.50;;;;;;5020182;28;20472;-54
2021/12/27 08:58:05;;;;;;;14.90;14.20;;;18.10;84.50;;;;;;5019749;28;20461;-54
2021/12/27 09:00:33;;;;;;;14.53;13.93;;;18.10;84.60;;;;;;5018981;28;20437;-53
2021/12/27 09:02:59;;;;;;;14.03;13.53;;;18.10;83.80;;;;;;5019831;28;20526;-54
2021/12/27 09:05:26;;;;;;;14.90;14.17;;;18.10;82.20;;;;;;5019312;28;20477;-53
2021/12/27 09:07:53;;;;;;;14.60;13.77;;;18.10;81.30;;;;;;5019642;28;20775;-52
2021/12/27 09:10:20;;;;;;;14.80;14.30;;;18.00;82.20;;;;;;5020180;28;20893;-51
2021/12/27 09:12:46;;;;;;;13.97;13.37;;;18.10;83.90;;;;;;5019694;28;20449;-52
2021/12/27 09:15:15;;;;;;;14.00;13.50;;;18.10;84.30;;;;;;5019817;28;20480;-53
2021/12/27 09:17:42;;;;;;;14.70;14.20;;;18.10;84.60;;;;;;5019511;28;20477;-52
2021/12/27 09:20:09;;;;;;;14.50;14.00;;;18.20;84.80;;;;;;5019789;28;20456;-54
2021/12/27 09:22:36;;;;;;;14.70;14.00;;;18.20;85.10;;;;;;5019561;28;20453;-54
2021/12/27 09:25:03;;;;;;;14.33;13.87;;;18.10;85.00;;;;;;5019793;28;20499;-50
2021/12/27 09:27:30;;;;;;;14.43;13.73;;;18.10;85.00;;;;;;5019534;28;20465;-51
2021/12/27 09:29:57;;;;;;;15.00;14.43;;;18.10;85.10;;;;;;5019599;28;20456;-52
2021/12/27 09:32:25;;;;;;;14.77;14.17;;;18.20;85.00;;;;;;5019272;28;20460;-52
2021/12/27 09:34:52;;;;;;;14.37;13.87;;;18.20;85.00;;;;;;5019473;28;20930;-52
2021/12/27 09:37:19;;;;;;;14.40;13.80;;;18.10;84.90;;;;;;5019208;28;20835;-53
2021/12/27 09:39:53;;;;;;;14.70;14.10;;;18.10;85.20;;;;;;5019311;28;20599;-52
2021/12/27 09:42:20;;;;;;;14.10;13.50;;;18.10;85.20;;;;;;5001083;28;20964;-55
2021/12/27 09:44:46;;;;;;;14.63;14.10;;;18.10;85.10;;;;;;5001199;28;20482;-55
2021/12/27 09:47:13;;;;;;;14.87;14.37;;;18.20;85.20;;;;;;5002492;28;20470;-56
2021/12/27 09:49:41;;;;;;;15.30;14.80;;;18.20;85.10;;;;;;5000900;28;20880;-56
2021/12/27 09:52:09;;;;;;;13.60;13.07;;;18.20;84.90;;;;;;5011646;28;20595;-58
2021/12/27 09:54:35;;;;;;;14.00;13.30;;;18.20;84.90;;;;;;5020877;28;20449;-52
2021/12/27 09:57:03;;;;;;;14.60;14.10;;;18.20;84.40;;;;;;5020789;28;20469;-56
2021/12/27 09:59:29;;;;;;;14.90;14.30;;;18.20;84.40;;;;;;5020412;28;20448;-56
2021/12/27 10:01:56;;;;;;;16.00;15.30;;;18.30;84.60;;;;;;5016879;28;20457;-52
2021/12/27 10:04:24;;;;;;;15.87;15.17;;;18.30;83.60;;;;;;5020296;28;20484;-52
2021/12/27 10:06:52;;;;;;;15.37;14.70;;;18.30;83.80;;;;;;5020232;28;20485;-53
2021/12/27 10:09:20;;;;;;;14.80;14.30;;;18.30;83.70;;;;;;5020349;28;20540;-57
2021/12/27 10:11:47;;;;;;;16.30;15.30;;;18.40;83.70;;;;;;5019981;28;20458;-51
2021/12/27 10:14:16;;;;;;;13.77;13.27;;;18.40;83.30;;;;;;5020321;28;20445;-57
2021/12/27 10:16:46;;;;;;;14.47;13.87;;;18.40;82.80;;;;;;5019593;28;20843;-58
2021/12/27 10:19:16;;;;;;;14.80;14.30;;;18.40;82.00;;;;;;5020413;28;20453;-57
2021/12/27 10:21:43;;;;;;;14.20;13.70;;;18.30;82.10;;;;;;5020645;28;20453;-56
2021/12/27 10:24:14;;;;;;;14.60;14.10;;;18.30;82.70;;;;;;5020021;28;20444;-52
2021/12/27 10:26:42;;;;;;;15.30;14.70;;;18.30;83.00;;;;;;5020527;28;20500;-56
2021/12/27 10:29:13;;;;;;;15.60;14.90;;;18.00;75.20;;;;;;5020236;28;20453;-61
2021/12/27 10:31:59;;;;;;;15.00;14.20;;;17.40;75.20;;;;;;5019983;28;21040;-58
2021/12/27 10:34:27;;;;;;;14.50;14.00;;;17.20;86.90;;;;;;5000396;28;20453;-55
2021/12/27 10:37:04;;;;;;;15.37;14.67;;;17.70;88.50;;;;;;5000433;28;20473;-60
2021/12/27 10:39:43;;;;;;;14.60;14.10;;;18.00;86.80;;;;;;5002925;28;20812;-57
2021/12/27 10:42:12;;;;;;;14.57;14.07;;;18.10;84.90;;;;;;5013362;28;20480;-49
2021/12/27 10:44:39;;;;;;;15.73;15.23;;;18.10;84.70;;;;;;5020175;28;20481;-49
2021/12/27 10:47:30;;;;;;;15.30;14.40;;;18.10;84.50;;;;;;5019600;28;20476;-49
2021/12/27 10:50:03;;;;;;;14.20;13.63;;;18.20;84.30;;;;;;5019595;28;20544;-49
2021/12/27 10:52:55;;;;;;;15.50;14.80;;;18.20;84.10;;;;;;5017223;28;20453;-48
2021/12/27 10:55:25;;;;;;;15.70;15.10;;;18.20;83.40;;;;;;5017780;28;20556;-48
2021/12/27 10:57:53;;;;;;;15.30;14.70;;;18.20;83.20;;;;;;5019669;28;20472;-51
2021/12/27 11:00:27;;;;;;;14.47;13.87;;;18.30;82.80;;;;;;5019488;28;20939;-48
2021/12/27 11:02:55;;;;;;;14.17;13.57;;;18.30;83.00;;;;;;5019669;28;20453;-49
2021/12/27 11:05:26;;;;;;;15.27;14.67;;;18.40;82.90;;;;;;5019506;28;21119;-49
2021/12/27 11:07:54;;;;;;;14.80;14.30;;;18.40;82.70;;;;;;5019431;28;20480;-56
2021/12/27 11:10:22;;;;;;;15.23;14.37;;;18.40;82.20;;;;;;5019433;28;20546;-53
2021/12/27 11:12:51;;;;;;;14.03;13.50;;;18.50;83.60;;;;;;5019523;28;20591;-49
2021/12/27 11:15:18;;;;;;;15.33;14.63;;;18.90;87.60;;;;;;5019375;28;20445;-48
2021/12/27 11:17:46;;;;;;;15.80;15.10;;;19.60;82.00;;;;;;5018957;28;20476;-50
2021/12/27 11:20:15;;;;;;;14.00;13.50;;;20.00;78.10;;;;;;5019365;28;20491;-48
2021/12/27 11:22:43;;;;;;;14.80;14.30;;;20.40;75.20;;;;;;5019375;28;20449;-48
2021/12/27 11:25:23;;;;;;;15.03;14.50;;;20.70;73.30;;;;;;5019573;28;20491;-52
2021/12/27 11:27:51;;;;;;;14.63;14.13;;;21.30;70.70;;;;;;5020926;28;20534;-49
2021/12/27 11:30:23;;;;;;;15.00;14.50;;;21.70;67.50;;;;;;5023572;28;20445;-56
2021/12/27 11:33:20;;;;;;;15.87;15.07;;;21.90;64.90;;;;;;5023195;28;20476;-44
2021/12/27 11:36:08;;;;;;;13.40;12.90;;;22.10;62.80;;;;;;4987558;28;20472;-48
2021/12/27 11:38:38;;;;;;;15.70;15.10;;;22.20;61.90;;;;;;5023087;28;20683;-49
2021/12/27 11:41:26;;;;;;;15.67;15.10;;;22.40;60.50;;;;;;5023101;28;20453;-50
2021/12/27 11:43:55;;;;;;;15.85;15.25;;;22.50;59.30;;;;;;5022555;28;20562;-48
2021/12/27 11:46:22;;;;;;;16.70;16.10;;;22.60;58.50;;;;;;5022594;28;20222;-48
2021/12/27 11:48:51;;;;;;;16.50;15.90;;;22.70;58.20;;;;;;5014016;28;20452;-51
2021/12/27 11:51:28;;;;;;;16.30;15.70;;;22.90;57.40;;;;;;5023158;28;20880;-48
2021/12/27 11:53:55;;;;;;;15.07;14.48;;;22.90;56.80;;;;;;5018841;28;20453;-50
2021/12/27 11:56:51;;;;;;;17.10;16.30;;;22.90;56.40;;;;;;5023045;28;20222;-56
2021/12/27 11:59:35;;;;;;;15.33;14.77;;;23.10;56.10;;;;;;5022795;28;20445;-51
2021/12/27 12:02:18;;;;;;;16.57;15.97;;;23.60;55.20;;;;;;5022834;28;21033;-48
2021/12/27 12:04:47;;;;;;;17.13;16.33;;;23.70;54.30;;;;;;5021908;28;20464;-47
2021/12/27 12:07:56;;;;;;;16.50;15.83;;;23.90;53.50;;;;;;5022323;28;20469;-49
2021/12/27 12:10:23;;;;;;;16.67;16.00;;;23.80;51.60;;;;;;4975679;28;20801;-51
2021/12/27 12:13:17;;;;;;;16.70;16.10;;;23.80;50.50;;;;;;5022419;28;20471;-49
2021/12/27 12:15:58;;;;;;;16.03;15.43;;;23.70;50.30;;;;;;5022697;28;20530;-50
2021/12/27 12:18:25;;;;;;;16.57;15.77;;;23.80;50.50;;;;;;5022349;28;20453;-48
2021/12/27 12:20:52;;;;;;;15.20;14.70;;;23.80;50.50;;;;;;5022373;28;21264;-49
2021/12/27 12:23:19;;;;;;;16.50;15.70;;;23.90;50.80;;;;;;5022187;28;20445;-48
2021/12/27 12:25:45;;;;;;;16.80;16.20;;;23.90;50.70;;;;;;5022134;28;20480;-48
2021/12/27 12:28:14;;;;;;;16.33;15.53;;;23.80;50.80;;;;;;5022371;28;20809;-48
2021/12/27 12:30:47;;;;;;;16.63;16.03;;;23.80;51.30;;;;;;5022021;28;20452;-48
2021/12/27 12:33:16;;;;;;;16.77;15.97;;;23.80;51.80;;;;;;5022101;28;20508;-48
2021/12/27 12:35:45;;;;;;;16.47;15.87;;;23.70;52.10;;;;;;5022275;28;20902;-47